Time;durP1;ratioP1;P1;durP2;ratioP2;P2;SDS_P1;SDS_P2;PMS_P1;PMS_P2;Temp;Humidity;BMP_temperature;BMP_pressure;BME280_temperature;BME280_humidity;BME280_pressure;Samples;Min_cycle;Max_cycle;Signal;HPM_P1;HPM_P2
2022/11/10 00:00:25;;;;;;;;;24.50;17.75;;;;;12.47;60.90;101630.84;4926194;28;45602;-62
2022/11/10 00:02:50;;;;;;;;;25.50;22.25;;;;;12.45;60.26;101626.47;4943128;28;46300;-62
2022/11/10 00:05:19;;;;;;;;;26.25;22.25;;;;;12.42;60.88;101623.88;4943392;28;45469;-63
2022/11/10 00:07:44;;;;;;;;;19.75;17.25;;;;;12.41;60.68;101630.88;4944044;28;45298;-63
2022/11/10 00:10:11;;;;;;;;;25.75;21.50;;;;;12.34;60.82;101624.78;4962662;28;45280;-62
2022/11/10 00:12:38;;;;;;;;;20.00;17.25;;;;;12.38;60.68;101635.31;4961016;28;45507;-64
2022/11/10 00:17:47;;;;;;;;;22.50;18.75;;;;;12.34;61.13;101645.03;4962828;28;45402;-63
2022/11/10 00:20:13;;;;;;;;;20.75;17.25;;;;;12.33;60.94;101644.13;4948904;28;45303;-62
2022/11/10 00:22:39;;;;;;;;;18.50;15.75;;;;;12.33;60.87;101643.25;4942158;28;64090;-63
2022/11/10 00:25:06;;;;;;;;;19.75;17.25;;;;;12.32;60.85;101649.41;4952483;28;45327;-63
2022/11/10 00:27:33;;;;;;;;;20.75;17.25;;;;;12.29;60.71;101657.31;4960882;28;45274;-62
2022/11/10 00:29:58;;;;;;;;;20.75;16.50;;;;;12.29;60.83;101660.84;4962323;28;45246;-63
2022/11/10 00:32:23;;;;;;;;;18.75;16.75;;;;;12.29;60.83;101662.59;4961911;28;47172;-63
2022/11/10 00:34:49;;;;;;;;;19.50;17.25;;;;;12.26;60.93;101663.50;4962340;28;45327;-63
2022/11/10 00:37:15;;;;;;;;;16.00;16.00;;;;;12.26;60.90;101668.75;4958749;28;45526;-63
2022/11/10 00:39:41;;;;;;;;;20.75;18.00;;;;;12.26;60.76;101668.75;4942827;28;45517;-64
2022/11/10 00:42:06;;;;;;;;;16.50;15.75;;;;;12.23;60.92;101674.06;4940898;28;45263;-62
2022/11/10 00:44:32;;;;;;;;;19.50;16.75;;;;;12.22;60.88;101671.44;4925626;28;45368;-63
2022/11/10 00:46:58;;;;;;;;;19.00;14.50;;;;;12.21;60.98;101673.19;4943050;28;45615;-63
2022/11/10 00:49:24;;;;;;;;;19.50;18.25;;;;;12.18;61.00;101671.44;4942813;28;45457;-63
2022/11/10 00:51:49;;;;;;;;;20.25;18.00;;;;;12.18;60.77;101678.50;4942667;28;46115;-64
2022/11/10 00:54:15;;;;;;;;;15.75;15.75;;;;;12.17;61.03;101685.50;4942715;28;45420;-62
2022/11/10 00:56:41;;;;;;;;;17.00;15.00;;;;;12.14;60.86;101679.41;4942537;28;45416;-63
2022/11/10 00:59:06;;;;;;;;;18.50;15.25;;;;;12.13;60.93;101675.88;4941559;28;45537;-63
2022/11/10 01:01:32;;;;;;;;;18.75;16.50;;;;;11.75;60.92;101619.00;4968192;23;47638;-62
2022/11/10 01:03:57;;;;;;;;;21.25;16.00;;;;;11.71;60.60;101618.13;4962116;28;45242;-63
2022/11/10 01:06:23;;;;;;;;;13.75;13.75;;;;;12.09;61.22;101686.44;4962092;28;45249;-62
2022/11/10 01:08:48;;;;;;;;;13.00;13.00;;;;;11.97;61.24;101682.97;4962237;28;45522;-63
2022/11/10 01:11:18;;;;;;;;;19.75;16.25;;;;;12.03;61.01;101693.50;4960040;28;45343;-63
2022/11/10 01:13:45;;;;;;;;;17.50;14.75;;;;;12.03;61.16;101700.53;4942759;28;45229;-63
2022/11/10 01:16:13;;;;;;;;;15.00;13.50;;;;;12.01;61.00;101691.75;4942479;28;45532;-63
2022/11/10 01:18:39;;;;;;;;;18.00;15.00;;;;;11.98;61.22;101690.00;4942666;28;45360;-63
2022/11/10 01:21:05;;;;;;;;;16.00;14.00;;;;;11.99;61.20;101689.13;4959767;28;45362;-63
2022/11/10 01:23:30;;;;;;;;;16.50;13.75;;;;;11.97;61.23;101693.50;4961849;28;45334;-63
2022/11/10 01:25:57;;;;;;;;;12.25;12.00;;;;;11.96;61.23;101698.81;4961558;28;45338;-63
2022/11/10 01:28:23;;;;;;;;;20.75;15.75;;;;;11.97;61.39;101693.50;4961769;28;45314;-63
2022/11/10 01:30:48;;;;;;;;;13.25;13.00;;;;;11.97;61.16;101700.56;4961442;28;45398;-62
2022/11/10 01:33:13;;;;;;;;;14.00;12.75;;;;;11.98;60.98;101707.59;4961565;28;50888;-62
2022/11/10 01:35:39;;;;;;;;;15.00;11.75;;;;;11.95;61.21;101713.72;4961599;28;45603;-63
2022/11/10 01:38:04;;;;;;;;;17.75;16.25;;;;;11.93;61.23;101707.56;4961517;28;45532;-63
2022/11/10 01:40:29;;;;;;;;;16.25;14.00;;;;;11.89;61.13;101705.84;4959152;28;46106;-63
2022/11/10 01:42:56;;;;;;;;;13.00;11.75;;;;;11.92;61.49;101712.84;4960457;28;45223;-63
2022/11/10 01:45:22;;;;;;;;;13.75;13.75;;;;;11.90;61.15;101710.22;4960262;28;45376;-63
2022/11/10 01:47:57;;;;;;;;;16.25;14.00;;;;;11.87;61.33;101719.00;4960114;28;45480;-63
2022/11/10 01:50:27;;;;;;;;;9.50;9.50;;;;;11.88;61.31;101727.78;4961296;28;46183;-63
2022/11/10 01:52:56;;;;;;;;;24.75;16.50;;;;;11.83;61.21;101727.78;4961274;28;45287;-63
2022/11/10 01:55:23;;;;;;;;;13.75;11.00;;;;;11.86;61.46;101729.53;4961346;28;45276;-63
2022/11/10 01:57:49;;;;;;;;;17.50;13.25;;;;;11.83;61.31;101729.56;4960896;28;45512;-63
2022/11/10 02:00:16;;;;;;;;;12.25;12.25;;;;;11.83;61.17;101725.16;4960968;28;46318;-63
2022/11/10 02:02:49;;;;;;;;;14.00;12.00;;;;;11.83;61.36;101732.19;4960990;28;45499;-63
2022/11/10 02:05:15;;;;;;;;;13.00;11.00;;;;;11.81;61.27;101739.22;4959860;28;45322;-62
2022/11/10 02:07:41;;;;;;;;;12.75;12.75;;;;;11.83;61.36;101740.09;4959725;28;45684;-62
2022/11/10 02:10:13;;;;;;;;;17.50;14.00;;;;;11.83;61.28;101745.34;4960966;28;46158;-63
2022/11/10 02:12:39;;;;;;;;;16.25;15.75;;;;;11.84;61.35;101749.75;4960634;28;45363;-63
2022/11/10 02:15:06;;;;;;;;;15.75;13.50;;;;;11.82;61.18;101735.69;4961317;28;45335;-62
2022/11/10 02:17:32;;;;;;;;;13.50;11.50;;;;;11.81;61.37;101740.09;4960945;28;45605;-63
2022/11/10 02:19:59;;;;;;;;;16.75;12.50;;;;;11.80;61.30;101740.97;4961016;28;45429;-62
2022/11/10 02:22:25;;;;;;;;;16.75;12.50;;;;;11.79;61.44;101741.00;4960857;28;45307;-63
2022/11/10 02:24:50;;;;;;;;;16.50;13.25;;;;;11.77;61.50;101745.38;4961182;28;45631;-62
2022/11/10 02:27:15;;;;;;;;;16.75;11.50;;;;;11.74;61.23;101741.00;4960516;28;45394;-63
2022/11/10 02:29:41;;;;;;;;;15.00;12.25;;;;;11.73;61.36;101747.13;4961093;28;45247;-63
2022/11/10 02:32:06;;;;;;;;;11.00;8.50;;;;;11.74;61.46;101748.91;4960797;28;45257;-62
2022/11/10 02:34:31;;;;;;;;;14.00;11.75;;;;;11.73;61.38;101744.50;4960970;28;45284;-62
2022/11/10 02:36:57;;;;;;;;;16.25;14.00;;;;;11.71;61.36;101749.78;4960738;28;45582;-62
2022/11/10 02:39:22;;;;;;;;;15.00;13.25;;;;;11.69;61.72;101748.91;4955712;28;46702;-63
2022/11/10 02:41:47;;;;;;;;;13.25;10.75;;;;;11.69;61.41;101748.03;4960411;28;45314;-62
2022/11/10 02:44:12;;;;;;;;;12.00;11.00;;;;;11.65;61.38;101744.53;4960860;28;45236;-63
2022/11/10 02:46:38;;;;;;;;;18.50;13.75;;;;;11.62;61.59;101746.28;4960793;28;45522;-63
2022/11/10 02:49:03;;;;;;;;;9.75;9.75;;;;;11.64;61.56;101753.31;4960743;28;45446;-62
2022/11/10 02:51:29;;;;;;;;;10.50;9.25;;;;;11.64;61.45;101749.81;4960648;28;45515;-62
2022/11/10 02:53:54;;;;;;;;;15.25;12.50;;;;;11.60;61.64;101751.56;4961563;28;45413;-63
2022/11/10 02:56:20;;;;;;;;;12.75;11.75;;;;;11.60;61.52;101735.78;4963822;28;45434;-63
2022/11/10 02:58:45;;;;;;;;;19.25;12.50;;;;;11.58;61.51;101755.94;4962504;28;46350;-62
2022/11/10 03:01:10;;;;;;;;;12.50;11.50;;;;;11.58;61.52;101752.44;4963938;28;45263;-63
2022/11/10 03:03:36;;;;;;;;;12.00;12.00;;;;;11.57;61.58;101758.59;4962632;28;45326;-63
2022/11/10 03:06:01;;;;;;;;;16.00;11.00;;;;;11.55;61.55;101751.56;4963989;28;45550;-63
2022/11/10 03:08:26;;;;;;;;;12.00;11.00;;;;;11.54;61.51;101751.56;4963769;28;46178;-64
2022/11/10 03:10:54;;;;;;;;;12.00;10.75;;;;;11.49;61.66;101756.84;4963503;28;45315;-63
2022/11/10 03:13:19;;;;;;;;;11.00;11.00;;;;;11.51;61.62;101751.59;4963753;28;46829;-63
2022/11/10 03:15:46;;;;;;;;;12.00;10.00;;;;;11.49;61.71;101761.25;4963664;28;45565;-63
2022/11/10 03:18:11;;;;;;;;;10.00;10.00;;;;;11.48;61.65;101756.84;4963556;28;46202;-63
2022/11/10 03:20:37;;;;;;;;;7.75;7.50;;;;;11.46;61.80;101753.34;4961985;28;48371;-63
2022/11/10 03:23:03;;;;;;;;;10.50;9.25;;;;;11.43;61.78;101750.72;4963650;28;45351;-63
2022/11/10 03:25:29;;;;;;;;;9.50;9.50;;;;;11.38;61.86;101748.09;4963373;28;45540;-63
2022/11/10 03:27:55;;;;;;;;;9.00;8.50;;;;;11.38;61.84;101750.72;4963504;28;45262;-62
2022/11/10 03:30:20;;;;;;;;;17.75;11.75;;;;;11.42;61.81;101756.84;4963588;28;45315;-63
2022/11/10 03:32:46;;;;;;;;;9.50;8.75;;;;;11.37;61.75;101755.13;4963572;28;45263;-62
2022/11/10 03:35:11;;;;;;;;;19.25;13.00;;;;;11.36;61.81;101763.03;4963304;28;45404;-62
2022/11/10 03:37:40;;;;;;;;;11.50;9.25;;;;;11.35;61.89;101767.38;4961754;28;45384;-63
2022/11/10 03:40:05;;;;;;;;;12.50;10.00;;;;;11.32;61.92;101767.41;4961352;28;45292;-63
2022/11/10 03:42:31;;;;;;;;;14.00;11.75;;;;;11.31;62.04;101763.03;4962887;28;45412;-62
2022/11/10 03:44:56;;;;;;;;;12.00;10.75;;;;;11.28;61.95;101765.66;4963541;28;45232;-63
2022/11/10 03:47:22;;;;;;;;;13.50;11.25;;;;;11.29;61.89;101772.66;4962685;28;57040;-63
2022/11/10 03:49:47;;;;;;;;;12.75;11.75;;;;;11.27;62.09;101768.28;4963279;28;45290;-63
2022/11/10 03:52:12;;;;;;;;;11.00;10.00;;;;;11.25;62.02;101776.19;4962061;28;45510;-63
2022/11/10 03:54:38;;;;;;;;;10.25;9.00;;;;;11.24;62.08;101781.44;4963179;28;45653;-62
2022/11/10 03:57:03;;;;;;;;;12.25;9.25;;;;;11.24;62.04;101787.56;4962397;28;49450;-62
2022/11/10 03:59:32;;;;;;;;;9.75;9.25;;;;;11.21;62.03;101791.09;4961814;28;45273;-62
2022/11/10 04:01:58;;;;;;;;;10.00;9.00;;;;;11.20;62.19;101783.19;4945301;28;45436;-63
2022/11/10 04:09:56;;;;;;;;;13.00;10.75;;;;;11.14;61.90;101794.59;4962743;28;45295;-62
2022/11/10 04:17:50;;;;;;;;;12.25;10.00;;;;;11.11;62.00;101807.75;4962537;28;45159;-63
2022/11/10 04:20:16;;;;;;;;;11.75;10.00;;;;;11.11;62.14;101801.63;4962756;28;45255;-63
2022/11/10 04:25:25;;;;;;;;;12.50;10.75;;;;;11.06;62.13;101802.47;4962521;28;45224;-63
2022/11/10 04:27:50;;;;;;;;;13.75;9.00;;;;;11.05;62.09;101811.25;4962338;28;45260;-63
2022/11/10 04:30:15;;;;;;;;;9.75;9.50;;;;;11.03;62.13;101807.75;4962584;28;45219;-63
2022/11/10 04:32:41;;;;;;;;;11.75;11.00;;;;;11.00;62.22;101807.72;4962613;28;45834;-63
2022/11/10 04:35:06;;;;;;;;;13.00;8.75;;;;;10.98;62.10;101811.22;4962772;28;45315;-63
2022/11/10 04:37:32;;;;;;;;;14.25;11.25;;;;;10.96;62.14;101810.38;4962328;28;46172;-63
2022/11/10 04:39:57;;;;;;;;;13.50;10.00;;;;;10.95;62.21;101812.09;4960443;28;45303;-63
2022/11/10 04:42:22;;;;;;;;;14.25;10.00;;;;;10.91;62.37;101817.38;4962142;28;45161;-63
2022/11/10 04:44:47;;;;;;;;;12.50;9.50;;;;;10.90;62.32;101816.50;4962596;28;45449;-63
2022/11/10 04:47:13;;;;;;;;;13.00;10.00;;;;;10.89;62.25;101820.00;4962130;28;45369;-63
2022/11/10 04:49:38;;;;;;;;;10.25;10.00;;;;;10.89;62.39;101825.25;4962261;28;48402;-63
2022/11/10 04:52:04;;;;;;;;;11.25;9.50;;;;;10.88;62.12;101829.63;4962328;28;45330;-61
2022/11/10 04:54:29;;;;;;;;;11.50;8.75;;;;;10.86;62.24;101831.38;4962269;28;45385;-63
2022/11/10 04:56:54;;;;;;;;;13.75;11.00;;;;;10.83;62.28;101835.75;4961843;28;46675;-63
2022/11/10 04:59:19;;;;;;;;;10.75;9.00;;;;;10.81;62.12;101832.25;4962149;28;45326;-63
2022/11/10 05:01:45;;;;;;;;;9.00;9.00;;;;;10.78;62.40;101841.03;4961906;28;45341;-63
2022/11/10 05:04:10;;;;;;;;;12.25;9.25;;;;;10.78;62.33;101842.75;4962292;28;45532;-63
2022/11/10 05:06:35;;;;;;;;;10.50;9.00;;;;;10.76;62.44;101844.53;4960791;28;46970;-63
2022/11/10 05:09:01;;;;;;;;;13.50;12.25;;;;;10.71;62.51;101844.50;4961989;28;45365;-63
2022/11/10 05:11:26;;;;;;;;;10.00;9.00;;;;;10.71;62.49;101855.00;4961796;28;45273;-63
2022/11/10 05:13:51;;;;;;;;;9.75;9.75;;;;;10.70;62.50;101862.03;4961983;28;45445;-61
2022/11/10 05:16:17;;;;;;;;;10.25;9.25;;;;;10.68;62.50;101863.78;4961871;28;45407;-63
2022/11/10 05:18:42;;;;;;;;;11.25;9.00;;;;;10.67;62.34;101859.38;4960655;28;45396;-63
2022/11/10 05:21:08;;;;;;;;;11.50;9.25;;;;;10.66;62.46;101870.75;4961798;28;45303;-63
2022/11/10 05:23:42;;;;;;;;;11.75;9.00;;;;;10.62;62.19;101874.25;4961884;28;45347;-63
2022/11/10 05:26:09;;;;;;;;;33.25;29.75;;;;;10.65;62.40;101879.50;4961266;28;46088;-63
2022/11/10 05:28:35;;;;;;;;;11.00;9.25;;;;;10.64;62.33;101875.16;4961743;28;45224;-63
2022/11/10 05:31:01;;;;;;;;;11.75;11.00;;;;;10.63;62.60;101875.13;4961641;28;45358;-63
2022/11/10 05:33:26;;;;;;;;;9.75;9.00;;;;;10.60;62.24;101875.13;4961633;28;45430;-63
2022/11/10 05:35:51;;;;;;;;;9.25;9.00;;;;;10.60;62.50;101877.75;4961490;28;46260;-63
2022/11/10 05:38:17;;;;;;;;;11.25;9.50;;;;;10.61;62.37;101898.78;4961416;28;45288;-63
2022/11/10 05:40:42;;;;;;;;;11.75;9.00;;;;;10.59;62.28;101889.16;4959047;28;45215;-63
2022/11/10 05:43:09;;;;;;;;;13.50;11.25;;;;;10.60;62.29;101901.41;4961472;28;45481;-63
2022/11/10 05:45:34;;;;;;;;;7.00;7.00;;;;;10.60;62.16;101904.91;4961398;28;46455;-63
2022/11/10 05:47:59;;;;;;;;;11.75;10.75;;;;;10.59;62.48;101903.19;4961285;28;45259;-61
2022/11/10 05:50:25;;;;;;;;;13.00;13.00;;;;;10.59;62.53;101902.28;4961392;28;45357;-63
2022/11/10 05:52:52;;;;;;;;;15.00;14.00;;;;;10.53;62.13;101904.00;4961297;28;45397;-63
2022/11/10 05:55:24;;;;;;;;;11.25;10.00;;;;;10.56;62.42;101906.69;4961155;28;48035;-62
2022/11/10 05:57:51;;;;;;;;;14.50;13.25;;;;;10.53;62.56;101909.28;4960075;28;45309;-63
2022/11/10 06:00:22;;;;;;;;;12.75;11.00;;;;;10.54;62.51;101918.03;4961148;28;45445;-63
2022/11/10 06:03:01;;;;;;;;;9.75;9.75;;;;;10.54;62.55;101911.03;4960803;28;45245;-63
2022/11/10 06:05:27;;;;;;;;;9.75;8.00;;;;;10.51;62.61;101910.13;4961110;28;46073;-63
2022/11/10 06:07:52;;;;;;;;;10.25;9.00;;;;;10.51;62.65;101915.41;4961009;28;45386;-63
2022/11/10 06:10:18;;;;;;;;;10.00;8.25;;;;;10.48;62.52;101920.66;4961276;28;45348;-63
2022/11/10 06:12:43;;;;;;;;;10.50;9.50;;;;;10.46;62.46;101910.09;4961068;28;45401;-63
2022/11/10 06:15:10;;;;;;;;;12.00;11.25;;;;;10.45;62.58;101915.38;4961157;28;46939;-63
2022/11/10 06:17:38;;;;;;;;;10.75;10.75;;;;;10.43;62.72;101915.38;4961012;28;45167;-63
2022/11/10 06:20:04;;;;;;;;;13.25;11.50;;;;;10.39;62.56;101919.72;4960956;28;45433;-63
2022/11/10 06:22:30;;;;;;;;;10.25;8.00;;;;;10.36;62.63;101913.56;4960831;28;45393;-63
2022/11/10 06:24:55;;;;;;;;;13.75;12.75;;;;;10.34;62.88;101918.78;4960576;28;55484;-63
2022/11/10 06:27:20;;;;;;;;;15.25;13.00;;;;;10.33;62.84;101916.16;4960762;28;45254;-63
2022/11/10 06:29:45;;;;;;;;;11.50;9.50;;;;;10.31;62.63;101910.88;4963396;28;45511;-63
2022/11/10 06:32:11;;;;;;;;;8.00;8.00;;;;;10.30;62.80;101922.28;4964528;28;45351;-64
2022/11/10 06:34:36;;;;;;;;;13.75;10.75;;;;;10.25;62.66;101918.72;4964217;28;45313;-63
2022/11/10 06:37:02;;;;;;;;;11.00;10.75;;;;;10.28;62.71;101926.63;4964186;28;45350;-63
2022/11/10 06:39:27;;;;;;;;;12.75;10.00;;;;;10.27;62.64;101937.13;4960940;28;45481;-63
2022/11/10 06:41:53;;;;;;;;;8.75;8.75;;;;;10.25;62.67;101943.25;4963802;28;45445;-63
2022/11/10 06:44:18;;;;;;;;;16.75;15.00;;;;;10.24;62.70;101948.50;4964181;28;46188;-63
2022/11/10 06:46:43;;;;;;;;;18.00;14.50;;;;;10.23;62.73;101946.75;4964322;28;45334;-63
2022/11/10 06:49:08;;;;;;;;;12.25;12.25;;;;;10.23;62.80;101952.00;4964359;28;45300;-63
2022/11/10 06:51:34;;;;;;;;;14.25;12.75;;;;;10.21;62.88;101952.00;4963983;28;48667;-63
2022/11/10 06:53:59;;;;;;;;;11.50;9.50;;;;;10.18;62.94;101962.47;4963986;28;45217;-63
2022/11/10 06:56:24;;;;;;;;;13.00;11.00;;;;;10.21;62.64;101966.84;4962611;28;45261;-63
2022/11/10 06:58:50;;;;;;;;;14.50;13.75;;;;;10.20;62.74;101973.88;4964075;28;45204;-63
2022/11/10 07:01:15;;;;;;;;;10.50;9.75;;;;;10.18;62.69;101972.97;4963599;28;45287;-64
2022/11/10 07:03:40;;;;;;;;;14.50;14.50;;;;;10.17;62.77;101979.09;4957506;28;46067;-64
2022/11/10 07:06:06;;;;;;;;;14.25;13.25;;;;;10.17;63.00;101975.59;4950085;28;45560;-65
2022/11/10 07:08:31;;;;;;;;;15.50;13.00;;;;;10.16;62.80;101982.63;4963331;28;45445;-65
2022/11/10 07:10:56;;;;;;;;;15.25;13.75;;;;;10.17;62.68;101986.97;4958134;28;45509;-66
2022/11/10 07:13:22;;;;;;;;;16.50;15.25;;;;;10.16;62.91;101984.34;4958106;28;46008;-66
2022/11/10 07:15:48;;;;;;;;;18.25;17.25;;;;;10.16;62.72;101994.84;4953752;28;45247;-67
2022/11/10 07:18:13;;;;;;;;;13.50;13.00;;;;;10.16;63.00;101993.13;4956291;28;45268;-67
2022/11/10 07:20:39;;;;;;;;;16.00;12.75;;;;;10.16;62.93;102006.25;4960239;28;45244;-62
2022/11/10 07:23:06;;;;;;;;;18.75;14.50;;;;;10.14;62.81;102007.97;4956396;28;47889;-61
2022/11/10 07:25:36;;;;;;;;;15.50;14.75;;;;;10.14;62.81;102017.59;4961135;28;45279;-62
2022/11/10 07:28:05;;;;;;;;;16.00;15.25;;;;;10.12;63.12;102027.22;4958879;28;45234;-61
2022/11/10 07:30:33;;;;;;;;;17.75;16.25;;;;;10.09;62.90;102018.44;4962113;28;45472;-62
2022/11/10 07:33:05;;;;;;;;;16.50;14.50;;;;;10.11;62.79;102025.47;4962372;28;45454;-70
2022/11/10 07:35:32;;;;;;;;;15.75;13.25;;;;;10.08;63.21;102029.81;4962076;28;45534;-63
2022/11/10 07:38:02;;;;;;;;;17.75;15.50;;;;;10.09;63.10;102035.97;4962238;28;45423;-61
2022/11/10 07:40:27;;;;;;;;;19.50;16.00;;;;;10.06;63.03;102035.91;4961623;28;45516;-60
2022/11/10 07:42:52;;;;;;;;;18.50;18.25;;;;;10.06;63.01;102036.81;4962953;28;45239;-60
2022/11/10 07:45:18;;;;;;;;;19.75;18.25;;;;;10.04;63.17;102048.16;4963514;28;45216;-60
2022/11/10 07:47:44;;;;;;;;;21.75;18.25;;;;;10.02;63.16;102050.75;4947654;28;45225;-60
2022/11/10 07:50:09;;;;;;;;;20.00;18.25;;;;;10.01;63.24;102054.28;4942399;28;45786;-61
2022/11/10 07:52:35;;;;;;;;;17.00;16.25;;;;;9.99;63.28;102055.13;4942500;28;46982;-60
2022/11/10 07:55:00;;;;;;;;;20.50;19.75;;;;;9.93;63.28;102059.44;4943745;28;45279;-60
2022/11/10 07:57:26;;;;;;;;;18.50;15.50;;;;;9.88;63.47;102065.53;4943512;28;45770;-59
2022/11/10 07:59:51;;;;;;;;;18.75;17.00;;;;;9.85;63.71;102065.47;4943546;28;45423;-59
2022/11/10 08:02:16;;;;;;;;;21.50;18.25;;;;;9.87;63.56;102082.13;4943332;28;45469;-59
2022/11/10 08:04:42;;;;;;;;;18.25;18.00;;;;;9.84;63.43;102085.59;4954845;28;45506;-59
2022/11/10 08:07:07;;;;;;;;;22.00;20.25;;;;;9.84;63.60;102084.75;4963144;28;45429;-60
2022/11/10 08:09:32;;;;;;;;;27.00;23.00;;;;;9.84;63.71;102098.75;4957209;28;45606;-59
2022/11/10 08:11:57;;;;;;;;;24.50;19.25;;;;;9.85;63.61;102094.34;4960401;28;45454;-59
2022/11/10 08:14:23;;;;;;;;;19.50;18.00;;;;;9.87;63.68;102113.66;4961571;28;45331;-59
2022/11/10 08:16:49;;;;;;;;;21.00;19.25;;;;;9.82;63.79;102116.22;4962712;28;45767;-59
2022/11/10 08:19:15;;;;;;;;;21.00;18.00;;;;;9.81;63.90;102119.72;4962614;28;45330;-59
2022/11/10 08:21:40;;;;;;;;;23.75;22.50;;;;;9.81;63.79;102129.31;4961066;28;45396;-59
2022/11/10 08:24:05;;;;;;;;;19.75;18.50;;;;;9.80;63.67;102123.22;4962358;28;52308;-59
2022/11/10 08:26:31;;;;;;;;;20.50;20.25;;;;;9.82;63.67;102128.47;4962592;28;45315;-59
2022/11/10 08:28:57;;;;;;;;;26.50;21.75;;;;;9.83;64.12;102138.13;4962476;28;45152;-59
2022/11/10 08:31:22;;;;;;;;;30.75;23.00;;;;;9.83;63.64;102143.38;4962681;28;45239;-59
2022/11/10 08:33:47;;;;;;;;;26.00;21.00;;;;;9.87;63.65;102145.16;4962428;28;45153;-59
2022/11/10 08:36:13;;;;;;;;;20.50;19.25;;;;;9.89;63.62;102139.06;4962778;28;45317;-59
2022/11/10 08:38:38;;;;;;;;;28.25;21.25;;;;;9.92;63.53;102140.81;4958528;28;45473;-59
2022/11/10 08:41:04;;;;;;;;;31.75;26.50;;;;;9.95;63.48;102142.59;4942599;28;46346;-59
2022/11/10 08:43:29;;;;;;;;;24.00;18.75;;;;;9.92;63.75;102144.34;4942863;28;45331;-59
2022/11/10 08:45:55;;;;;;;;;26.25;24.50;;;;;9.85;63.86;102132.00;4943371;28;45450;-59
2022/11/10 08:48:21;;;;;;;;;35.50;28.00;;;;;9.93;63.85;102146.09;4942856;28;45385;-59
2022/11/10 08:50:48;;;;;;;;;30.25;28.00;;;;;9.95;63.62;102148.75;4943046;28;45827;-59
2022/11/10 08:53:16;;;;;;;;;38.50;30.75;;;;;9.98;63.93;102143.53;4942457;28;45267;-59
2022/11/10 08:55:44;;;;;;;;;28.25;25.25;;;;;10.02;63.68;102140.06;4942704;28;45311;-59
2022/11/10 08:58:18;;;;;;;;;27.75;23.00;;;;;10.05;63.94;102152.34;4941451;28;45486;-59
2022/11/10 09:00:44;;;;;;;;;22.25;20.75;;;;;10.07;64.06;102159.41;4942862;28;45328;-59
2022/11/10 09:03:19;;;;;;;;;27.00;25.25;;;;;10.09;64.01;102168.16;4924827;28;46062;-59
2022/11/10 09:05:45;;;;;;;;;30.75;29.00;;;;;10.15;63.78;102176.97;4954333;28;45497;-59
2022/11/10 09:08:11;;;;;;;;;36.50;32.50;;;;;10.18;63.74;102166.50;4962455;28;45624;-59
2022/11/10 09:10:39;;;;;;;;;29.75;26.00;;;;;10.20;63.69;102170.91;4961744;28;46035;-60
2022/11/10 09:13:05;;;;;;;;;28.25;27.25;;;;;10.20;63.93;102175.25;4961695;28;45249;-60
2022/11/10 09:15:32;;;;;;;;;31.50;26.00;;;;;10.23;64.06;102176.19;4961912;28;45297;-59
2022/11/10 09:17:58;;;;;;;;;30.50;27.00;;;;;10.28;64.12;102175.38;4961860;28;45492;-60
2022/11/10 09:20:25;;;;;;;;;32.50;27.75;;;;;10.31;63.89;102178.88;4961893;28;45501;-59
2022/11/10 09:22:50;;;;;;;;;25.25;23.25;;;;;10.31;64.17;102188.53;4960454;28;45343;-60
2022/11/10 09:25:16;;;;;;;;;24.50;21.50;;;;;10.35;64.10;102190.31;4961727;28;45519;-60
2022/11/10 09:27:41;;;;;;;;;24.75;21.25;;;;;10.34;64.09;102194.69;4961514;28;45330;-61
2022/11/10 09:30:07;;;;;;;;;27.00;20.75;;;;;10.36;64.20;102202.63;4961849;28;45259;-60
2022/11/10 09:32:33;;;;;;;;;23.50;21.00;;;;;10.44;64.33;102200.06;4961582;28;45290;-59
2022/11/10 09:34:59;;;;;;;;;25.25;22.00;;;;;10.47;64.37;102205.34;4961700;28;45421;-60
2022/11/10 09:37:25;;;;;;;;;26.75;23.75;;;;;10.47;64.37;102208.84;4961612;28;45299;-60
2022/11/10 09:39:50;;;;;;;;;29.75;26.75;;;;;10.51;64.26;102209.78;4961404;28;45334;-60
2022/11/10 09:42:45;;;;;;;;;31.50;28.50;;;;;10.53;64.46;102208.06;4960992;28;45346;-60
2022/11/10 09:45:23;;;;;;;;;32.50;28.00;;;;;10.53;64.27;102211.53;4956795;28;45331;-60
2022/11/10 09:48:03;;;;;;;;;27.75;26.25;;;;;10.57;64.42;102217.72;4961564;28;45437;-60
2022/11/10 09:50:32;;;;;;;;;24.00;21.50;;;;;10.59;64.49;102223.88;4961256;28;46258;-60
2022/11/10 09:52:59;;;;;;;;;23.00;21.00;;;;;10.62;64.54;102221.25;4961157;28;45375;-61
2022/11/10 09:55:24;;;;;;;;;29.00;22.50;;;;;10.63;64.71;102222.13;4960917;28;45284;-61
2022/11/10 09:57:55;;;;;;;;;25.75;21.00;;;;;10.66;64.53;102216.91;4961223;28;45299;-61
2022/11/10 10:00:20;;;;;;;;;26.25;23.25;;;;;10.59;64.75;102200.22;4961038;28;45375;-60
2022/11/10 10:03:18;;;;;;;;;36.50;30.25;;;;;10.71;64.60;102212.59;4960795;28;45267;-61
2022/11/10 10:06:01;;;;;;;;;32.25;27.25;;;;;10.73;64.65;102214.34;4952185;28;45290;-60
2022/11/10 10:08:54;;;;;;;;;37.50;32.00;;;;;10.73;64.81;102209.09;4960936;28;45428;-61
2022/11/10 10:11:33;;;;;;;;;35.75;32.00;;;;;10.82;64.70;102223.19;4960410;28;46213;-60
2022/11/10 10:14:06;;;;;;;;;28.75;26.25;;;;;10.84;64.78;102221.44;4960982;28;45211;-60
2022/11/10 10:17:07;;;;;;;;;30.00;25.25;;;;;10.85;64.82;102229.34;4960988;28;45283;-59
2022/11/10 10:19:38;;;;;;;;;35.25;30.00;;;;;10.83;64.88;102227.56;4960766;28;45447;-60
2022/11/10 10:22:15;;;;;;;;;27.50;24.50;;;;;10.87;64.96;102235.50;4960875;28;46172;-60
2022/11/10 10:24:41;;;;;;;;;29.25;26.00;;;;;10.95;65.28;102237.34;4960755;28;45512;-60
2022/11/10 10:27:14;;;;;;;;;38.00;32.00;;;;;11.00;65.05;102248.75;4960787;28;45298;-61
2022/11/10 10:29:44;;;;;;;;;27.75;25.50;;;;;11.04;64.79;102247.91;4960827;28;45484;-61
2022/11/10 10:32:14;;;;;;;;;34.25;29.00;;;;;11.09;64.70;102253.22;4960873;28;45207;-60
2022/11/10 10:34:42;;;;;;;;;38.25;32.50;;;;;11.11;64.77;102248.88;4959427;28;45405;-61
2022/11/10 10:37:46;;;;;;;;;33.75;32.00;;;;;11.13;64.88;102252.38;4960890;28;45291;-61
2022/11/10 10:40:21;;;;;;;;;32.00;28.50;;;;;11.21;64.99;102269.09;4959285;28;45327;-59
2022/11/10 10:42:47;;;;;;;;;24.75;23.50;;;;;11.28;64.94;102280.53;4960404;28;46319;-61
2022/11/10 10:45:15;;;;;;;;;24.75;24.00;;;;;11.31;64.90;102276.19;4960511;28;45338;-60
2022/11/10 10:47:42;;;;;;;;;26.75;24.75;;;;;11.37;64.90;102280.59;4960924;28;45254;-60
2022/11/10 10:50:27;;;;;;;;;27.25;26.00;;;;;11.38;64.84;102295.53;4960528;28;45501;-61
2022/11/10 10:53:12;;;;;;;;;25.00;20.25;;;;;11.41;65.06;102297.31;4960536;28;46166;-61
2022/11/10 10:55:58;;;;;;;;;25.00;21.25;;;;;11.38;65.03;102292.91;4959972;28;45256;-61
2022/11/10 10:58:28;;;;;;;;;20.00;19.50;;;;;11.44;65.12;102287.69;4960524;28;45258;-61
2022/11/10 11:01:00;;;;;;;;;21.50;19.75;;;;;11.49;65.03;102283.31;4959172;28;45340;-60
2022/11/10 11:03:46;;;;;;;;;20.00;20.00;;;;;11.52;64.97;102280.72;4960123;28;46240;-61
2022/11/10 11:06:11;;;;;;;;;27.75;22.00;;;;;11.57;65.16;102267.56;4960398;28;45406;-61
2022/11/10 11:08:36;;;;;;;;;24.25;22.25;;;;;11.59;65.14;102271.09;4975377;28;45332;-61
2022/11/10 11:11:09;;;;;;;;;21.50;19.75;;;;;11.59;65.13;102280.78;4960295;28;45876;-61
2022/11/10 11:13:35;;;;;;;;;21.50;20.75;;;;;11.59;65.31;102267.59;4960366;28;46142;-61
2022/11/10 11:16:04;;;;;;;;;24.50;22.00;;;;;11.63;65.12;102274.63;4962622;28;45306;-61
2022/11/10 11:18:31;;;;;;;;;19.75;19.75;;;;;11.58;65.14;102266.69;4964100;28;45357;-61
2022/11/10 11:21:06;;;;;;;;;24.25;20.75;;;;;11.60;65.34;102274.63;4962092;28;45562;-61
2022/11/10 11:23:46;;;;;;;;;21.25;18.25;;;;;11.59;65.41;102276.38;4962154;28;46259;-60
2022/11/10 11:26:21;;;;;;;;;33.00;25.25;;;;;11.62;65.21;102278.13;4962995;28;45359;-61
2022/11/10 11:28:57;;;;;;;;;31.25;25.75;;;;;11.66;65.23;102267.66;4963707;28;45275;-61